Bookmark and Share
Track history (hours):
 

Emerald Leader

Last reported at 2014-Apr-24 10:32 UTC. Time now 2014-Apr-24 11:22 UTC.
Position N 43°35' E 010°18'.

Length 176 m; draft 8.2 m.

Type: Cargo ship. MMSI: 308688000.

NotesDate/timePositionNaut miles runAvg speedWind from/ knotsBaromVisibWave heightAir tempDewpointWater temp
2014-Apr-24 10:32N 43°35' E 010°18'0 0.0
2014-Apr-24 09:32N 43°35' E 010°18'0 0.0
2014-Apr-24 08:32N 43°35' E 010°18'0 0.0
2014-Apr-24 07:32N 43°35' E 010°18'0 0.0
2014-Apr-24 06:32N 43°35' E 010°18'0 0.0
2014-Apr-24 05:29N 43°35' E 010°18'0 0.0
2014-Apr-24 04:29N 43°35' E 010°18'0 0.0
2014-Apr-24 03:32N 43°35' E 010°18'0 0.0
2014-Apr-24 02:32N 43°35' E 010°18'0 0.0
2014-Apr-24 01:32N 43°35' E 010°18'3 3.4
2014-Apr-24 00:34N 43°32' E 010°16'8 7.8
2014-Apr-23 23:34N 43°26' E 010°08'2 1.6
2014-Apr-23 22:33N 43°25' E 010°08'1010.0
2014-Apr-23 21:34N 43°18' E 009°58'1615.6
2014-Apr-23 20:34N 43°14' E 009°37'1615.8
2014-Apr-23 19:34N 43°11' E 009°16'1616.1
2014-Apr-23 18:33N 43°06' E 008°55'1616.2
2014-Apr-23 17:33N 42°58' E 008°36'1615.9
2014-Apr-23 16:33N 42°51' E 008°17'1716.5
2014-Apr-23 15:31N 42°43' E 007°56'1515.4
2014-Apr-23 14:33N 42°35' E 007°39'1616.1
2014-Apr-23 13:33N 42°27' E 007°19'1616.1
2014-Apr-23 12:32N 42°20' E 006°60'1616.1
2014-Apr-23 11:33N 42°12' E 006°41'1815.9
2014-Apr-23 10:27N 42°04' E 006°20'4615.6
2014-Apr-23 07:32N 41°42' E 005°27'2216.8
2014-Apr-23 06:15N 41°31' E 005°01'1216.0
2014-Apr-23 05:30N 41°26' E 004°47'1515.2
2014-Apr-23 04:32N 41°19' E 004°30'1515.4
2014-Apr-23 03:33N 41°11' E 004°13'1616.2
2014-Apr-23 02:33N 41°04' E 003°54'1616.2
2014-Apr-23 01:33N 40°56' E 003°35'1615.7
2014-Apr-23 00:34N 40°47' E 003°17'1515.2
2014-Apr-22 23:34N 40°40' E 003°00'1616.0
2014-Apr-22 22:33N 40°33' E 002°41'1716.7
2014-Apr-22 21:34N 40°25' E 002°22'1616.0
2014-Apr-22 20:33N 40°18' E 002°03'1616.4
2014-Apr-22 19:33N 40°10' E 001°44'1615.7
2014-Apr-22 18:33N 40°02' E 001°26'1616.1
2014-Apr-22 17:33N 39°54' E 001°08'1514.5
2014-Apr-22 16:33N 39°48' E 000°51'1615.6
2014-Apr-22 15:32N 39°43' E 000°31'1615.8
2014-Apr-22 14:33N 39°40' E 000°12'  
2014-Apr-19 22:18N 37°52' W 000°14'1215.4
2014-Apr-19 21:30N 37°42' W 000°23'6114.3
2014-Apr-19 17:14N 36°59' W 001°18'19115.0
2014-Apr-19 04:30N 36°02' W 005°04'1718.3
2014-Apr-19 03:34N 35°58' W 005°25'1615.8
2014-Apr-19 02:33N 35°54' W 005°44'15615.3
2014-Apr-18 16:23N 36°27' W 008°53'8414.3
2014-Apr-18 10:30N 37°39' W 009°48'2015.5
2014-Apr-18 09:15N 37°58' W 009°54'1215.5
2014-Apr-18 08:28N 38°10' W 009°57'3015.4
2014-Apr-18 06:30N 38°39' W 010°06'  
2014-Apr-15 02:34N 50°40' W 005°28'1514.5
2014-Apr-15 01:33N 50°49' W 005°10'7915.9
2014-Apr-14 20:33N 51°22' W 003°15'1818.0
2014-Apr-14 19:34N 51°29' W 002°49'4 3.6
2014-Apr-14 18:33N 51°30' W 002°43'0 0.0
2014-Apr-14 17:33N 51°30' W 002°43'0 0.0
2014-Apr-14 16:33N 51°30' W 002°43'0 0.0
2014-Apr-14 15:33N 51°30' W 002°43'0 0.0
2014-Apr-14 14:33N 51°30' W 002°43'0 0.0
2014-Apr-14 13:33N 51°30' W 002°43'0 0.0
2014-Apr-14 11:30N 51°30' W 002°43'0 0.0
2014-Apr-14 10:33N 51°30' W 002°43'  

Dump ship's entire track history

sailing weather and tide predictions

Emerald Leader — C6WP4 — position and weather